Time;durP1;ratioP1;P1;durP2;ratioP2;P2;SDS_P1;SDS_P2;PMS_P1;PMS_P2;Temp;Humidity;BMP_temperature;BMP_pressure;BME280_temperature;BME280_humidity;BME280_pressure;Samples;Min_cycle;Max_cycle;Signal;HPM_P1;HPM_P2
2022/05/12 00:00:03;;;;;;;;;;;10.90;99.90;;;;;;5138463;27;20281;-59
2022/05/12 00:02:33;;;;;;;;;;;10.90;99.90;;;;;;5137203;27;20079;-59
2022/05/12 00:04:59;;;;;;;;;;;10.90;99.90;;;;;;5119868;27;20334;-59
2022/05/12 00:07:25;;;;;;;;;;;11.00;99.90;;;;;;5138453;27;19923;-59
2022/05/12 00:09:51;;;;;;;;;;;11.00;99.90;;;;;;5137413;27;19931;-59
2022/05/12 00:12:17;;;;;;;;;;;11.00;99.90;;;;;;5136832;27;19923;-59
2022/05/12 00:14:43;;;;;;;;;;;11.00;99.90;;;;;;5137696;27;19923;-59
2022/05/12 00:17:09;;;;;;;;;;;11.10;99.90;;;;;;5137358;27;19930;-59
2022/05/12 00:19:35;;;;;;;;;;;11.10;99.90;;;;;;5138163;27;19934;-59
2022/05/12 00:22:01;;;;;;;;;;;11.00;99.90;;;;;;5141917;27;19928;-59
2022/05/12 00:24:26;;;;;;;;;;;11.00;99.90;;;;;;5137201;27;19923;-59
2022/05/12 00:26:52;;;;;;;;;;;11.00;99.90;;;;;;5119092;27;20006;-59
2022/05/12 00:29:18;;;;;;;;;;;11.10;99.90;;;;;;5137445;27;20011;-59
2022/05/12 00:31:45;;;;;;;;;;;11.10;99.90;;;;;;5137059;27;19972;-59
2022/05/12 00:34:11;;;;;;;;;;;11.20;99.90;;;;;;5132570;27;19994;-59
2022/05/12 00:36:37;;;;;;;;;;;11.10;99.90;;;;;;5117381;28;20320;-59
2022/05/12 00:39:03;;;;;;;;;;;11.20;99.90;;;;;;5126641;27;19944;-59
2022/05/12 00:41:29;;;;;;;;;;;11.10;99.90;;;;;;5137017;27;20014;-59
2022/05/12 00:43:56;;;;;;;;;;;11.10;99.90;;;;;;5118995;27;19971;-59
2022/05/12 00:46:23;;;;;;;;;;;11.00;99.90;;;;;;5136439;27;19931;-59
2022/05/12 00:48:50;;;;;;;;;;;11.00;99.90;;;;;;5136790;27;19968;-59
2022/05/12 00:51:19;;;;;;;;;;;10.90;99.90;;;;;;5118923;27;19920;-59
2022/05/12 00:53:47;;;;;;;;;;;10.90;99.90;;;;;;5137455;27;19931;-59
2022/05/12 00:56:15;;;;;;;;;;;10.90;99.90;;;;;;5136411;27;19923;-59
2022/05/12 00:58:41;;;;;;;;;;;10.70;99.90;;;;;;5136621;27;19923;-59
2022/05/12 01:01:07;;;;;;;;;;;10.60;99.90;;;;;;5137324;27;19928;-59
2022/05/12 01:03:33;;;;;;;;;;;10.50;99.90;;;;;;5118488;27;19923;-59
2022/05/12 01:06:00;;;;;;;;;;;10.50;99.90;;;;;;5135895;27;19923;-59
2022/05/12 01:08:26;;;;;;;;;;;10.40;99.90;;;;;;5137319;27;19953;-59
2022/05/12 01:10:55;;;;;;;;;;;10.30;99.90;;;;;;5118130;27;19923;-59
2022/05/12 01:13:21;;;;;;;;;;;10.20;99.90;;;;;;5117203;27;19930;-59
2022/05/12 01:15:48;;;;;;;;;;;10.40;99.90;;;;;;5099074;28;19924;-59
2022/05/12 01:18:17;;;;;;;;;;;10.20;99.90;;;;;;5108285;27;19941;-59
2022/05/12 01:20:44;;;;;;;;;;;10.10;99.90;;;;;;5120653;27;19930;-59
2022/05/12 01:23:19;;;;;;;;;;;10.10;99.90;;;;;;5147473;27;20277;-59
2022/05/12 01:25:44;;;;;;;;;;;10.00;99.90;;;;;;5136181;27;19928;-59
2022/05/12 01:28:10;;;;;;;;;;;10.00;99.90;;;;;;5117635;27;19968;-59
2022/05/12 01:30:36;;;;;;;;;;;9.90;99.90;;;;;;5136431;27;19923;-59
2022/05/12 01:33:01;;;;;;;;;;;9.80;99.90;;;;;;5135986;27;19927;-59
2022/05/12 01:35:27;;;;;;;;;;;9.70;99.90;;;;;;5101619;28;19963;-59
2022/05/12 01:37:53;;;;;;;;;;;9.70;99.90;;;;;;5115946;28;19931;-59
2022/05/12 01:40:20;;;;;;;;;;;9.60;99.90;;;;;;5120058;27;20378;-59
2022/05/12 01:42:46;;;;;;;;;;;9.60;99.90;;;;;;5135785;27;19976;-59
2022/05/12 01:45:12;;;;;;;;;;;9.70;99.90;;;;;;5136331;27;19920;-59
2022/05/12 01:47:38;;;;;;;;;;;9.50;99.90;;;;;;5135174;27;19931;-59
2022/05/12 01:50:04;;;;;;;;;;;9.50;99.90;;;;;;5117778;27;19931;-59
2022/05/12 01:52:30;;;;;;;;;;;9.50;99.90;;;;;;5136180;27;19920;-59
2022/05/12 01:54:56;;;;;;;;;;;9.50;99.90;;;;;;5135128;27;20470;-59
2022/05/12 01:57:22;;;;;;;;;;;9.40;99.90;;;;;;5136212;27;19931;-59
2022/05/12 01:59:49;;;;;;;;;;;9.60;99.90;;;;;;5135658;27;19924;-59
2022/05/12 02:02:15;;;;;;;;;;;9.50;99.90;;;;;;5116442;27;19927;-59
2022/05/12 02:04:40;;;;;;;;;;;9.40;99.90;;;;;;5135990;27;19969;-59
2022/05/12 02:07:06;;;;;;;;;;;9.30;99.90;;;;;;5135448;27;19932;-60
2022/05/12 02:09:32;;;;;;;;;;;9.30;99.90;;;;;;5116269;27;19935;-59
2022/05/12 02:11:58;;;;;;;;;;;9.30;99.90;;;;;;5134029;27;19931;-59
2022/05/12 02:14:24;;;;;;;;;;;9.30;99.90;;;;;;5122476;27;19934;-59
2022/05/12 02:16:50;;;;;;;;;;;9.30;99.90;;;;;;5133723;27;19973;-59
2022/05/12 02:19:15;;;;;;;;;;;9.50;99.90;;;;;;5135379;27;19966;-59
2022/05/12 02:21:41;;;;;;;;;;;9.40;99.90;;;;;;5120282;27;19930;-59
2022/05/12 02:24:07;;;;;;;;;;;9.40;99.90;;;;;;5153597;27;19931;-59
2022/05/12 02:26:32;;;;;;;;;;;9.40;99.90;;;;;;5135420;27;19923;-59
2022/05/12 02:28:58;;;;;;;;;;;9.40;99.90;;;;;;5135537;27;19923;-59
2022/05/12 02:31:24;;;;;;;;;;;9.40;99.90;;;;;;5134505;27;20050;-59
2022/05/12 02:33:49;;;;;;;;;;;9.40;99.90;;;;;;5132980;27;19924;-59
2022/05/12 02:36:15;;;;;;;;;;;9.50;99.90;;;;;;5096121;28;19985;-58
2022/05/12 02:38:41;;;;;;;;;;;9.40;99.90;;;;;;5113578;28;20313;-59
2022/05/12 02:41:06;;;;;;;;;;;9.40;99.90;;;;;;5116510;27;20547;-59
2022/05/12 02:43:32;;;;;;;;;;;9.40;99.90;;;;;;5116114;27;20270;-59
2022/05/12 02:45:59;;;;;;;;;;;9.40;99.90;;;;;;5134167;27;19989;-59
2022/05/12 02:48:26;;;;;;;;;;;9.40;99.90;;;;;;5116877;27;19927;-59
2022/05/12 02:50:52;;;;;;;;;;;9.40;99.90;;;;;;5134387;27;19923;-58
2022/05/12 02:53:18;;;;;;;;;;;11.00;99.90;;;;;;5134662;27;19923;-59
2022/05/12 02:55:44;;;;;;;;;;;9.60;99.90;;;;;;5134941;27;19927;-59
2022/05/12 02:58:11;;;;;;;;;;;9.40;99.90;;;;;;5116116;27;19931;-59
2022/05/12 03:00:37;;;;;;;;;;;9.30;99.90;;;;;;5134193;27;19923;-59
2022/05/12 03:03:03;;;;;;;;;;;9.30;99.90;;;;;;5134598;27;19975;-59
2022/05/12 03:05:28;;;;;;;;;;;9.20;99.90;;;;;;5148521;27;20322;-59
2022/05/12 03:07:54;;;;;;;;;;;9.10;99.90;;;;;;5155661;27;19983;-59
2022/05/12 03:10:20;;;;;;;;;;;9.00;99.90;;;;;;5154701;27;19923;-59
2022/05/12 03:12:45;;;;;;;;;;;8.90;99.90;;;;;;5154665;27;19923;-59
2022/05/12 03:15:12;;;;;;;;;;;8.90;99.90;;;;;;5155048;27;19923;-58
2022/05/12 03:17:39;;;;;;;;;;;8.90;99.90;;;;;;5154463;27;19930;-59
2022/05/12 03:20:07;;;;;;;;;;;8.80;99.90;;;;;;5154161;27;20292;-58
2022/05/12 03:22:32;;;;;;;;;;;8.80;99.90;;;;;;5155345;27;19923;-58
2022/05/12 03:24:58;;;;;;;;;;;8.80;99.90;;;;;;5136691;27;19923;-59
2022/05/12 03:27:24;;;;;;;;;;;9.20;99.90;;;;;;5153714;27;19934;-59
2022/05/12 03:29:49;;;;;;;;;;;8.70;99.90;;;;;;5154801;27;19923;-58
2022/05/12 03:32:15;;;;;;;;;;;8.80;99.90;;;;;;5155014;27;19923;-58
2022/05/12 03:34:40;;;;;;;;;;;8.80;99.90;;;;;;5154070;27;20312;-59
2022/05/12 03:37:07;;;;;;;;;;;8.80;99.90;;;;;;5136437;27;19927;-59
2022/05/12 03:39:33;;;;;;;;;;;8.80;99.90;;;;;;5154698;27;20338;-59
2022/05/12 03:41:59;;;;;;;;;;;8.80;99.90;;;;;;5154292;27;20361;-59
2022/05/12 03:47:12;;;;;;;;;;;8.80;99.90;;;;;;5135253;27;19927;-59
2022/05/12 03:49:38;;;;;;;;;;;8.70;99.90;;;;;;5155120;27;19930;-59
2022/05/12 03:52:04;;;;;;;;;;;8.80;99.90;;;;;;5155068;27;19923;-59
2022/05/12 03:54:30;;;;;;;;;;;8.80;99.90;;;;;;5153506;27;20092;-58
2022/05/12 03:56:55;;;;;;;;;;;8.80;99.90;;;;;;5155058;27;19923;-59
2022/05/12 03:59:21;;;;;;;;;;;8.80;99.90;;;;;;5154711;27;20401;-58
2022/05/12 04:01:46;;;;;;;;;;;8.90;99.90;;;;;;5153289;27;20385;-58
2022/05/12 04:04:12;;;;;;;;;;;9.40;99.90;;;;;;5154947;27;19923;-58
2022/05/12 04:06:38;;;;;;;;;;;8.80;99.90;;;;;;5136331;27;19929;-59
2022/05/12 04:09:03;;;;;;;;;;;8.90;99.90;;;;;;5153871;27;19927;-59
2022/05/12 04:11:30;;;;;;;;;;;8.90;99.90;;;;;;5154119;27;20371;-59
2022/05/12 04:13:56;;;;;;;;;;;9.10;99.90;;;;;;5154578;27;19966;-59
2022/05/12 04:16:23;;;;;;;;;;;8.90;99.90;;;;;;5153407;27;19974;-58
2022/05/12 04:18:48;;;;;;;;;;;9.00;99.90;;;;;;5154679;27;19926;-59
2022/05/12 04:21:16;;;;;;;;;;;9.00;99.90;;;;;;5150114;27;19927;-58
2022/05/12 04:23:42;;;;;;;;;;;9.20;99.90;;;;;;5153672;27;20374;-58
2022/05/12 04:26:08;;;;;;;;;;;9.10;99.90;;;;;;5154600;27;20393;-59
2022/05/12 04:28:34;;;;;;;;;;;9.10;99.90;;;;;;5154125;27;19934;-59
2022/05/12 04:31:00;;;;;;;;;;;9.10;99.90;;;;;;5153186;27;20319;-58
2022/05/12 04:36:10;;;;;;;;;;;9.20;99.90;;;;;;5151231;27;20018;-59
2022/05/12 04:38:36;;;;;;;;;;;9.50;99.90;;;;;;5149616;27;20018;-59
2022/05/12 04:41:01;;;;;;;;;;;9.30;99.90;;;;;;5157289;27;19923;-58
2022/05/12 04:43:27;;;;;;;;;;;9.90;99.90;;;;;;5157676;27;19975;-59
2022/05/12 04:45:53;;;;;;;;;;;9.30;99.90;;;;;;5157568;27;19927;-58
2022/05/12 04:48:18;;;;;;;;;;;9.40;99.90;;;;;;5139737;27;20366;-59
2022/05/12 04:50:44;;;;;;;;;;;9.40;99.90;;;;;;5157373;27;20053;-58
2022/05/12 04:53:10;;;;;;;;;;;9.50;99.90;;;;;;5157520;27;19933;-59
2022/05/12 04:55:36;;;;;;;;;;;9.50;99.90;;;;;;5111684;27;19923;-59
2022/05/12 04:58:02;;;;;;;;;;;9.80;99.90;;;;;;5136400;27;19932;-59
2022/05/12 05:00:30;;;;;;;;;;;9.60;99.90;;;;;;5136554;27;19928;-59
2022/05/12 05:02:56;;;;;;;;;;;9.90;99.90;;;;;;5137122;27;19930;-59
2022/05/12 05:05:22;;;;;;;;;;;9.70;99.90;;;;;;5136206;27;20325;-59
2022/05/12 05:07:48;;;;;;;;;;;9.70;99.90;;;;;;5157679;27;20288;-58
2022/05/12 05:10:14;;;;;;;;;;;9.80;99.90;;;;;;5157795;27;19923;-59
2022/05/12 05:12:40;;;;;;;;;;;9.90;99.90;;;;;;5138031;27;19923;-58
2022/05/12 05:15:06;;;;;;;;;;;10.00;99.90;;;;;;5143269;27;20379;-58
2022/05/12 05:17:32;;;;;;;;;;;10.10;99.90;;;;;;5141591;27;19967;-58
2022/05/12 05:19:57;;;;;;;;;;;10.40;99.90;;;;;;5156507;27;19923;-58
2022/05/12 05:22:23;;;;;;;;;;;10.20;99.90;;;;;;5156328;27;20381;-59
2022/05/12 05:24:49;;;;;;;;;;;10.40;99.90;;;;;;5138680;27;20022;-59
2022/05/12 05:27:14;;;;;;;;;;;10.40;99.90;;;;;;5156210;27;19949;-58
2022/05/12 05:29:40;;;;;;;;;;;10.50;99.90;;;;;;5156658;27;20456;-59
2022/05/12 05:32:07;;;;;;;;;;;10.60;99.90;;;;;;5137242;27;20038;-59
2022/05/12 05:34:33;;;;;;;;;;;10.70;99.90;;;;;;5143774;27;19923;-59
2022/05/12 05:36:58;;;;;;;;;;;10.80;99.90;;;;;;5156832;27;19930;-59
2022/05/12 05:39:26;;;;;;;;;;;10.90;99.90;;;;;;5156844;27;20297;-59
2022/05/12 05:41:53;;;;;;;;;;;10.90;99.90;;;;;;5156220;27;19930;-59
2022/05/12 05:44:19;;;;;;;;;;;11.00;99.90;;;;;;5156886;27;19923;-59
2022/05/12 05:46:44;;;;;;;;;;;11.10;99.90;;;;;;5156162;27;20296;-59
2022/05/12 05:49:10;;;;;;;;;;;11.20;99.90;;;;;;5142443;27;19924;-58
2022/05/12 05:54:20;;;;;;;;;;;11.30;99.90;;;;;;5137343;27;19958;-59
2022/05/12 05:56:47;;;;;;;;;;;11.40;99.90;;;;;;5156310;27;19992;-59
2022/05/12 05:59:13;;;;;;;;;;;11.60;99.90;;;;;;5156955;27;19937;-59
2022/05/12 06:01:38;;;;;;;;;;;11.60;99.90;;;;;;5156104;27;19919;-59
2022/05/12 06:04:05;;;;;;;;;;;11.80;99.90;;;;;;5156819;27;19927;-59
2022/05/12 06:06:30;;;;;;;;;;;11.90;99.90;;;;;;5144413;27;19973;-58
2022/05/12 06:08:56;;;;;;;;;;;11.90;99.90;;;;;;5135208;27;19923;-59
2022/05/12 06:11:21;;;;;;;;;;;12.00;99.90;;;;;;5148717;27;19923;-59
2022/05/12 06:13:48;;;;;;;;;;;12.10;99.90;;;;;;5155080;27;20401;-59
2022/05/12 06:16:14;;;;;;;;;;;12.20;99.90;;;;;;5152010;27;20323;-59
2022/05/12 06:18:41;;;;;;;;;;;12.30;99.90;;;;;;5155762;27;19929;-59
2022/05/12 06:21:09;;;;;;;;;;;12.40;99.90;;;;;;5155259;27;19926;-59
2022/05/12 06:23:35;;;;;;;;;;;12.50;99.90;;;;;;5134973;27;20392;-59
2022/05/12 06:26:00;;;;;;;;;;;12.70;99.90;;;;;;5156013;27;19934;-59
2022/05/12 06:28:26;;;;;;;;;;;12.70;99.90;;;;;;5155840;27;19935;-59
2022/05/12 06:30:52;;;;;;;;;;;12.80;99.90;;;;;;5136651;27;19923;-59
2022/05/12 06:33:22;;;;;;;;;;;13.00;99.90;;;;;;5155838;27;19926;-59
2022/05/12 06:35:49;;;;;;;;;;;13.10;99.90;;;;;;5137198;27;19983;-59
2022/05/12 06:38:14;;;;;;;;;;;13.00;99.90;;;;;;5134355;27;19927;-59
2022/05/12 06:40:41;;;;;;;;;;;13.10;99.90;;;;;;5135198;27;19924;-59
2022/05/12 06:43:07;;;;;;;;;;;13.20;99.90;;;;;;5134257;27;19934;-59
2022/05/12 06:45:33;;;;;;;;;;;13.30;99.90;;;;;;5148091;27;19923;-59
2022/05/12 06:47:59;;;;;;;;;;;13.40;99.90;;;;;;5155704;27;20322;-59
2022/05/12 06:50:26;;;;;;;;;;;13.40;99.90;;;;;;5132366;27;19933;-59
2022/05/12 06:52:53;;;;;;;;;;;13.50;99.90;;;;;;5155523;27;19972;-59
2022/05/12 06:55:19;;;;;;;;;;;13.70;99.90;;;;;;5155283;27;19981;-59
2022/05/12 06:57:45;;;;;;;;;;;13.70;99.90;;;;;;5135909;27;19923;-59
2022/05/12 07:00:16;;;;;;;;;;;13.80;99.90;;;;;;5155073;27;19923;-59
2022/05/12 07:02:44;;;;;;;;;;;13.80;99.90;;;;;;5135951;27;20052;-59
2022/05/12 07:05:11;;;;;;;;;;;13.90;99.90;;;;;;5153732;27;19926;-59
2022/05/12 07:07:36;;;;;;;;;;;14.00;99.90;;;;;;5153760;27;20010;-59
2022/05/12 07:10:03;;;;;;;;;;;14.10;99.90;;;;;;5155178;27;20401;-59
2022/05/12 07:12:29;;;;;;;;;;;14.20;99.90;;;;;;5154326;27;19965;-59
2022/05/12 07:14:56;;;;;;;;;;;14.20;99.90;;;;;;5155174;27;20094;-59
2022/05/12 07:17:22;;;;;;;;;;;14.20;99.90;;;;;;5154874;27;19923;-59
2022/05/12 07:19:49;;;;;;;;;;;14.20;99.90;;;;;;5153894;27;19923;-59
2022/05/12 07:27:43;;;;;;;;;;;14.30;99.90;;;;;;5155073;27;19930;-59
2022/05/12 07:30:09;;;;;;;;;;;14.40;99.90;;;;;;5154976;27;20325;-59
2022/05/12 07:32:37;;;;;;;;;;;14.50;99.90;;;;;;5154360;27;19927;-59
2022/05/12 07:35:04;;;;;;;;;;;14.70;99.90;;;;;;5154321;27;19945;-59
2022/05/12 07:37:30;;;;;;;;;;;14.70;99.90;;;;;;5155092;27;19923;-59
2022/05/12 07:39:55;;;;;;;;;;;14.70;99.90;;;;;;5135554;27;19937;-59
2022/05/12 07:42:21;;;;;;;;;;;14.70;99.90;;;;;;5154222;27;20019;-59
2022/05/12 07:44:47;;;;;;;;;;;14.80;99.90;;;;;;5154102;27;19970;-59
2022/05/12 07:47:13;;;;;;;;;;;14.90;99.90;;;;;;5154429;27;19923;-59
2022/05/12 07:49:40;;;;;;;;;;;14.80;99.90;;;;;;5152122;27;20374;-59
2022/05/12 07:52:07;;;;;;;;;;;15.00;99.90;;;;;;5150989;27;20246;-59
2022/05/12 07:54:34;;;;;;;;;;;15.10;99.90;;;;;;5153896;27;19924;-59
2022/05/12 07:57:00;;;;;;;;;;;;;;;;;;5141601;27;19930;-59
2022/05/12 07:59:27;;;;;;;;;;;15.30;99.90;;;;;;5147785;27;19983;-59
2022/05/12 08:01:54;;;;;;;;;;;15.30;99.90;;;;;;5153480;27;19966;-59
2022/05/12 08:04:20;;;;;;;;;;;15.20;99.90;;;;;;5154442;27;20368;-59
2022/05/12 08:06:45;;;;;;;;;;;15.30;99.90;;;;;;5134101;27;19962;-59
2022/05/12 08:09:12;;;;;;;;;;;15.40;99.90;;;;;;5151787;27;19933;-59
2022/05/12 08:11:38;;;;;;;;;;;15.50;99.90;;;;;;5153854;27;20380;-60
2022/05/12 08:14:03;;;;;;;;;;;15.40;99.90;;;;;;5154595;27;19923;-59
2022/05/12 08:16:29;;;;;;;;;;;15.50;99.90;;;;;;5157557;27;19968;-60
2022/05/12 08:18:55;;;;;;;;;;;15.40;99.90;;;;;;5157841;27;19927;-59
2022/05/12 08:21:23;;;;;;;;;;;15.50;99.90;;;;;;5157965;27;19930;-59
2022/05/12 08:23:49;;;;;;;;;;;15.70;99.90;;;;;;5158180;27;19923;-59
2022/05/12 08:26:15;;;;;;;;;;;15.70;99.90;;;;;;5157619;27;20396;-59
2022/05/12 08:28:41;;;;;;;;;;;15.60;99.90;;;;;;5156046;27;20718;-59
2022/05/12 08:31:07;;;;;;;;;;;15.60;99.90;;;;;;5158369;27;20021;-59
2022/05/12 08:33:33;;;;;;;;;;;15.80;99.90;;;;;;5157888;27;19923;-59
2022/05/12 08:35:58;;;;;;;;;;;16.00;99.90;;;;;;5140231;27;19967;-60
2022/05/12 08:38:25;;;;;;;;;;;15.70;99.90;;;;;;5158247;27;20333;-59
2022/05/12 08:40:56;;;;;;;;;;;15.70;99.90;;;;;;5139206;27;19924;-59
2022/05/12 08:43:25;;;;;;;;;;;16.10;99.90;;;;;;5147281;27;20087;-59
2022/05/12 08:46:03;;;;;;;;;;;15.90;99.90;;;;;;5157064;27;19930;-59
2022/05/12 08:48:29;;;;;;;;;;;16.00;99.90;;;;;;5157806;27;19968;-59
2022/05/12 08:50:55;;;;;;;;;;;15.90;99.90;;;;;;5156076;27;19927;-59
2022/05/12 08:53:22;;;;;;;;;;;15.90;99.90;;;;;;5157248;27;20772;-59
2022/05/12 08:55:50;;;;;;;;;;;15.90;99.90;;;;;;5157382;27;19934;-59
2022/05/12 08:58:16;;;;;;;;;;;15.90;99.90;;;;;;5138151;27;20009;-59
2022/05/12 09:00:43;;;;;;;;;;;16.10;99.90;;;;;;5156506;27;20017;-59
2022/05/12 09:03:18;;;;;;;;;;;16.30;99.90;;;;;;5157368;27;20326;-59
2022/05/12 09:05:51;;;;;;;;;;;16.50;99.90;;;;;;5156486;27;19981;-59
2022/05/12 09:08:23;;;;;;;;;;;16.60;99.90;;;;;;5154621;27;19977;-60
2022/05/12 09:10:58;;;;;;;;;;;16.50;99.90;;;;;;5152224;27;19923;-59
2022/05/12 09:13:26;;;;;;;;;;;16.40;99.90;;;;;;5135031;27;20330;-59
2022/05/12 09:16:01;;;;;;;;;;;16.70;99.90;;;;;;5155556;27;19923;-59
2022/05/12 09:18:29;;;;;;;;;;;16.80;99.90;;;;;;5155826;27;19929;-59
2022/05/12 09:20:59;;;;;;;;;;;17.20;99.70;;;;;;5156501;27;19935;-59
2022/05/12 09:23:24;;;;;;;;;;;17.10;99.00;;;;;;5157408;27;20441;-60
2022/05/12 09:25:52;;;;;;;;;;;17.10;99.90;;;;;;5154970;27;19927;-60
2022/05/12 09:28:53;;;;;;;;;;;17.20;99.90;;;;;;5153024;27;19924;-59
2022/05/12 09:31:19;;;;;;;;;;;16.80;99.90;;;;;;5135778;27;20340;-59
2022/05/12 09:33:47;;;;;;;;;;;17.00;99.90;;;;;;5136574;27;19923;-59
2022/05/12 09:36:15;;;;;;;;;;;16.70;99.90;;;;;;5156286;27;19966;-59
2022/05/12 09:38:43;;;;;;;;;;;16.50;99.90;;;;;;5127448;27;19976;-59
2022/05/12 09:41:16;;;;;;;;;;;16.80;99.90;;;;;;5135130;27;19924;-60
2022/05/12 09:43:42;;;;;;;;;;;16.70;99.90;;;;;;5136532;27;20360;-59
2022/05/12 09:46:18;;;;;;;;;;;16.40;99.90;;;;;;5153173;27;20033;-59
2022/05/12 09:48:44;;;;;;;;;;;16.30;99.90;;;;;;5154623;27;19923;-59
2022/05/12 09:51:21;;;;;;;;;;;16.50;99.90;;;;;;5156667;27;19923;-59
2022/05/12 09:53:48;;;;;;;;;;;16.60;99.90;;;;;;5155437;27;19931;-59
2022/05/12 09:56:31;;;;;;;;;;;17.00;99.90;;;;;;5146762;27;20349;-60
2022/05/12 09:59:01;;;;;;;;;;;17.60;99.90;;;;;;5146018;27;19923;-59
2022/05/12 10:01:30;;;;;;;;;;;;;;;;;;5134882;27;20427;-60
2022/05/12 10:09:50;;;;;;;;;;;17.20;96.20;;;;;;5135616;27;20393;-59
2022/05/12 10:12:21;;;;;;;;;;;17.30;98.80;;;;;;5135267;27;19923;-60
2022/05/12 10:14:48;;;;;;;;;;;17.50;97.70;;;;;;5153945;27;19923;-60
2022/05/12 10:17:14;;;;;;;;;;;;;;;;;;5141470;27;19923;-59
2022/05/12 10:19:41;;;;;;;;;;;18.10;91.70;;;;;;5155798;27;20369;-60
2022/05/12 10:22:12;;;;;;;;;;;18.20;92.00;;;;;;5151359;27;19927;-59
2022/05/12 10:24:44;;;;;;;;;;;17.80;93.80;;;;;;5137523;27;20437;-60
2022/05/12 10:27:20;;;;;;;;;;;17.40;93.80;;;;;;5156151;27;19923;-60
2022/05/12 10:30:00;;;;;;;;;;;17.20;94.00;;;;;;5142124;27;19923;-60
2022/05/12 10:32:28;;;;;;;;;;;17.20;94.00;;;;;;5154136;27;19927;-60
2022/05/12 10:35:01;;;;;;;;;;;16.90;95.20;;;;;;5126499;27;19931;-60
2022/05/12 10:37:37;;;;;;;;;;;17.00;96.30;;;;;;5134372;27;19967;-59
2022/05/12 10:40:04;;;;;;;;;;;17.90;91.80;;;;;;5121497;27;19930;-60
2022/05/12 10:42:37;;;;;;;;;;;18.80;89.30;;;;;;5155346;27;19923;-60
2022/05/12 10:45:03;;;;;;;;;;;19.00;80.60;;;;;;5155908;27;20400;-60
2022/05/12 10:47:40;;;;;;;;;;;19.20;82.70;;;;;;5137087;27;19942;-60
2022/05/12 10:50:05;;;;;;;;;;;19.10;81.50;;;;;;5136022;27;19968;-60
2022/05/12 10:52:31;;;;;;;;;;;19.20;78.10;;;;;;5155390;27;19927;-60
2022/05/12 10:55:06;;;;;;;;;;;19.10;75.80;;;;;;5154939;27;20018;-60
2022/05/12 10:57:32;;;;;;;;;;;19.50;72.30;;;;;;5151197;27;19923;-60
2022/05/12 10:59:58;;;;;;;;;;;;;;;;;;5116302;27;19924;-60
2022/05/12 11:02:37;;;;;;;;;;;20.60;76.10;;;;;;5142185;27;20010;-60
2022/05/12 11:05:10;;;;;;;;;;;20.50;73.20;;;;;;5155058;27;19971;-60
2022/05/12 11:07:42;;;;;;;;;;;20.30;74.40;;;;;;5154973;27;20372;-59
2022/05/12 11:10:20;;;;;;;;;;;20.30;72.00;;;;;;5155382;27;19923;-60
2022/05/12 11:12:46;;;;;;;;;;;20.20;68.50;;;;;;5155255;27;19930;-60
2022/05/12 11:15:15;;;;;;;;;;;20.50;65.70;;;;;;5151325;27;20014;-60
2022/05/12 11:17:49;;;;;;;;;;;20.50;63.70;;;;;;5120892;27;21069;-60
2022/05/12 11:20:26;;;;;;;;;;;20.60;63.00;;;;;;5155287;27;19934;-60
2022/05/12 11:22:53;;;;;;;;;;;20.70;63.40;;;;;;5155170;27;20420;-60
2022/05/12 11:25:22;;;;;;;;;;;20.70;64.70;;;;;;5153857;27;20010;-60
2022/05/12 11:27:52;;;;;;;;;;;20.40;65.00;;;;;;5155085;27;19923;-60
2022/05/12 11:30:25;;;;;;;;;;;20.80;62.90;;;;;;5136406;27;19939;-60
2022/05/12 11:32:56;;;;;;;;;;;20.20;65.40;;;;;;5135006;27;19974;-60
2022/05/12 11:35:23;;;;;;;;;;;19.30;73.00;;;;;;5121573;27;20359;-60
2022/05/12 11:37:50;;;;;;;;;;;19.20;71.00;;;;;;5115915;27;20467;-60
2022/05/12 11:40:35;;;;;;;;;;;19.60;69.70;;;;;;5133114;27;19972;-60
2022/05/12 11:45:48;;;;;;;;;;;19.30;69.60;;;;;;5135461;27;20022;-60
2022/05/12 11:48:19;;;;;;;;;;;18.60;71.10;;;;;;5136061;27;19976;-60
2022/05/12 11:50:55;;;;;;;;;;;18.30;73.40;;;;;;5154072;27;19929;-60
2022/05/12 11:53:22;;;;;;;;;;;17.90;75.60;;;;;;5154407;27;20294;-60
2022/05/12 11:55:54;;;;;;;;;;;18.30;83.20;;;;;;5135821;27;19944;-60
2022/05/12 11:58:40;;;;;;;;;;;19.20;76.60;;;;;;5154992;27;19923;-60
2022/05/12 12:01:07;;;;;;;;;;;20.00;74.10;;;;;;5153000;27;19923;-60
2022/05/12 12:03:33;;;;;;;;;;;20.40;72.90;;;;;;5154627;27;19923;-60
2022/05/12 12:06:01;;;;;;;;;;;20.70;78.50;;;;;;5135552;27;19920;-60
2022/05/12 12:08:29;;;;;;;;;;;20.00;64.60;;;;;;5130921;27;20014;-60
2022/05/12 12:11:15;;;;;;;;;;;19.50;66.50;;;;;;5153928;27;19923;-60
2022/05/12 12:13:42;;;;;;;;;;;19.50;65.60;;;;;;5145025;27;19945;-60
2022/05/12 12:16:12;;;;;;;;;;;20.00;63.60;;;;;;5153830;27;19927;-60
2022/05/12 12:18:38;;;;;;;;;;;20.40;63.50;;;;;;5153942;27;19976;-60
2022/05/12 12:21:22;;;;;;;;;;;20.40;70.60;;;;;;5131750;28;19927;-60
2022/05/12 12:23:57;;;;;;;;;;;20.00;69.80;;;;;;5137784;27;20369;-60
2022/05/12 12:26:26;;;;;;;;;;;20.50;75.60;;;;;;5154223;27;19946;-60
2022/05/12 12:28:57;;;;;;;;;;;20.80;79.60;;;;;;5153899;27;19923;-60
2022/05/12 12:31:26;;;;;;;;;;;20.90;77.20;;;;;;5149880;27;20300;-60
2022/05/12 12:33:57;;;;;;;;;;;20.80;78.90;;;;;;5134335;27;20367;-60
2022/05/12 12:36:26;;;;;;;;;;;20.90;62.20;;;;;;5148922;27;20011;-60
2022/05/12 12:38:51;;;;;;;;;;;20.80;60.60;;;;;;5117319;27;19968;-60
2022/05/12 12:41:30;;;;;;;;;;;20.90;63.30;;;;;;5153218;27;19923;-60
2022/05/12 12:44:00;;;;;;;;;;;20.60;61.80;;;;;;5130773;27;19973;-60
2022/05/12 12:46:27;;;;;;;;;;;20.30;62.90;;;;;;5152941;27;19931;-60
2022/05/12 12:48:57;;;;;;;;;;;20.20;63.40;;;;;;5152438;27;19968;-60
2022/05/12 12:51:27;;;;;;;;;;;20.00;64.80;;;;;;5129955;27;20646;-60
2022/05/12 12:56:37;;;;;;;;;;;19.10;67.10;;;;;;5132581;28;20421;-60
2022/05/12 12:59:14;;;;;;;;;;;18.70;70.30;;;;;;5149950;27;20017;-60
2022/05/12 13:01:50;;;;;;;;;;;18.70;71.70;;;;;;5155502;27;19923;-60
2022/05/12 13:04:30;;;;;;;;;;;18.30;73.70;;;;;;5154713;27;19923;-60
2022/05/12 13:06:58;;;;;;;;;;;18.20;72.80;;;;;;5155579;27;19966;-59
2022/05/12 13:09:25;;;;;;;;;;;18.80;72.30;;;;;;5155237;27;19929;-60
2022/05/12 13:12:05;;;;;;;;;;;19.10;67.60;;;;;;5135827;27;19923;-60
2022/05/12 13:14:33;;;;;;;;;;;19.40;68.50;;;;;;5126479;27;19922;-60
2022/05/12 13:16:59;;;;;;;;;;;19.60;64.50;;;;;;5127788;27;20384;-60
2022/05/12 13:19:26;;;;;;;;;;;19.30;65.20;;;;;;5150860;27;19923;-60
2022/05/12 13:21:51;;;;;;;;;;;18.80;66.60;;;;;;5138237;27;19923;-60
2022/05/12 13:24:22;;;;;;;;;;;18.60;68.70;;;;;;5156365;27;19929;-60
2022/05/12 13:26:48;;;;;;;;;;;18.40;68.40;;;;;;5156833;27;19920;-60
2022/05/12 13:29:19;;;;;;;;;;;18.30;67.40;;;;;;5156921;27;19923;-60
2022/05/12 13:31:53;;;;;;;;;;;18.90;68.90;;;;;;5156349;27;19923;-60
2022/05/12 13:34:23;;;;;;;;;;;19.40;68.80;;;;;;5138248;27;19930;-60
2022/05/12 13:36:49;;;;;;;;;;;19.40;67.90;;;;;;5156418;27;19975;-60
2022/05/12 13:39:33;;;;;;;;;;;18.80;67.80;;;;;;5156245;27;20330;-60
2022/05/12 13:42:01;;;;;;;;;;;18.40;69.40;;;;;;5157351;27;20055;-60
2022/05/12 13:44:27;;;;;;;;;;;18.30;72.30;;;;;;5156980;27;20292;-60
2022/05/12 13:46:55;;;;;;;;;;;18.50;68.10;;;;;;5155555;27;19923;-60
2022/05/12 13:49:29;;;;;;;;;;;18.70;67.80;;;;;;5138272;27;20606;-60
2022/05/12 13:51:56;;;;;;;;;;;18.90;68.20;;;;;;5156993;27;19927;-60
2022/05/12 13:54:26;;;;;;;;;;;19.10;67.40;;;;;;5155802;27;19970;-60
2022/05/12 13:56:53;;;;;;;;;;;19.10;66.20;;;;;;5148804;27;19924;-60
2022/05/12 13:59:23;;;;;;;;;;;18.90;64.00;;;;;;5117001;27;19925;-60
2022/05/12 14:01:50;;;;;;;;;;;18.60;65.50;;;;;;5154030;27;19926;-60
2022/05/12 14:04:18;;;;;;;;;;;18.40;67.20;;;;;;5152061;27;19919;-60
2022/05/12 14:06:55;;;;;;;;;;;18.50;68.70;;;;;;5135195;27;19988;-60
2022/05/12 14:09:24;;;;;;;;;;;18.70;67.60;;;;;;5138284;27;20356;-60
2022/05/12 14:11:55;;;;;;;;;;;18.70;68.00;;;;;;5136809;27;19927;-60
2022/05/12 14:19:49;;;;;;;;;;;18.20;68.60;;;;;;5156131;27;19964;-60
2022/05/12 14:22:16;;;;;;;;;;;18.00;68.90;;;;;;5154957;27;19927;-60
2022/05/12 14:24:45;;;;;;;;;;;18.10;69.20;;;;;;5155737;27;19970;-60
2022/05/12 14:27:12;;;;;;;;;;;18.10;66.50;;;;;;5155191;27;20403;-60
2022/05/12 14:29:38;;;;;;;;;;;18.00;66.40;;;;;;5154671;27;19923;-60
2022/05/12 14:32:04;;;;;;;;;;;17.80;66.30;;;;;;5153774;27;20372;-60
2022/05/12 14:34:30;;;;;;;;;;;17.70;68.70;;;;;;5147973;27;20463;-60
2022/05/12 14:37:00;;;;;;;;;;;17.70;69.50;;;;;;5135117;27;19923;-60
2022/05/12 14:39:26;;;;;;;;;;;17.60;69.20;;;;;;5144210;27;19930;-60
2022/05/12 14:41:52;;;;;;;;;;;17.60;68.20;;;;;;5136908;27;19981;-60
2022/05/12 14:44:18;;;;;;;;;;;18.20;70.50;;;;;;5137126;27;19966;-60
2022/05/12 14:46:45;;;;;;;;;;;19.00;66.80;;;;;;5156213;27;19960;-60
2022/05/12 14:49:13;;;;;;;;;;;19.00;66.50;;;;;;5135725;27;20284;-59
2022/05/12 14:51:39;;;;;;;;;;;18.70;65.50;;;;;;5155284;27;20013;-60
2022/05/12 14:54:05;;;;;;;;;;;18.90;67.60;;;;;;5155499;27;19985;-59